Baraboo/Wisconsin Dells, Wisconsin
Current Conditions -  °F | °C
As of 12:50 AM on Sunday 21 Dec 2014 (Local Time) from KDLL Reporting Station
Haze Haze  
Wind Chill: 23°   Ceiling: 1100
Heat Index: 30°   Visibility: 4mi
Dew Point: 26°   Wind: 7mph
Humidity: 86%   Direction: 180°S
Pressure: 30.16"   Gusts: NA
Location:  43.55°N, 89.77°W
Report Text: KDLL 210650Z AUTO 18006KT 4SM BR OVC011 M01/M03 A3016 RMK AO2 T10131034
Loading
Personal Weather Stations






























Interactive Weather Map New forecast layout! Learn more

10-Day Weather Forecast

Advertisements
Track Severe Weather on mobile